createdAt,value
2019-04-23T00:02:23.304Z,10.68
2019-04-23T00:04:52.812Z,10.77
2019-04-23T00:07:35.555Z,10.81
2019-04-23T00:09:59.297Z,10.68
2019-04-23T00:12:38.094Z,10.78
2019-04-23T00:15:04.855Z,10.74
2019-04-23T00:17:30.452Z,10.62
2019-04-23T00:20:00.722Z,10.47
2019-04-23T00:22:31.253Z,10.59
2019-04-23T00:27:37.168Z,10.67
2019-04-23T00:29:56.456Z,10.70
2019-04-23T00:32:28.635Z,10.75
2019-04-23T00:35:00.784Z,10.66
2019-04-23T00:39:52.517Z,10.61
2019-04-23T00:44:51.570Z,10.62
2019-04-23T00:47:25.708Z,10.63
2019-04-23T00:50:02.026Z,10.54
2019-04-23T00:54:58.079Z,10.35
2019-04-23T00:57:25.812Z,10.29
2019-04-23T00:59:53.714Z,10.29
2019-04-23T01:02:18.082Z,10.21
2019-04-23T01:04:49.676Z,10.15
2019-04-23T01:07:16.395Z,10.18
2019-04-23T01:09:56.174Z,10.26
2019-04-23T01:12:14.037Z,10.35
2019-04-23T01:14:44.409Z,10.28
2019-04-23T01:17:17.322Z,10.35
2019-04-23T01:21:55.851Z,10.15
2019-04-23T01:24:47.879Z,10.20
2019-04-23T01:30:17.903Z,10.14
2019-04-23T01:32:38.113Z,10.09
2019-04-23T01:35:17.479Z,10.22
2019-04-23T01:37:36.934Z,10.28
2019-04-23T01:40:26.567Z,10.25
2019-04-23T01:42:40.658Z,10.14
2019-04-23T01:45:07.057Z,10.23
2019-04-23T01:47:36.945Z,10.18
2019-04-23T01:50:09.699Z,10.07
2019-04-23T01:52:31.907Z,10.20
2019-04-23T01:55:02.543Z,10.18
2019-04-23T01:57:31.129Z,10.15
2019-04-23T02:00:04.527Z,10.21
2019-04-23T02:02:29.806Z,10.07
2019-04-23T02:05:01.361Z,10.16
2019-04-23T02:07:29.681Z,10.09
2019-04-23T02:09:55.604Z,9.89
2019-04-23T02:12:18.059Z,9.90
2019-04-23T02:14:50.363Z,10.04
2019-04-23T02:17:22.611Z,9.85
2019-04-23T02:19:51.361Z,9.94
2019-04-23T02:22:56.244Z,9.88
2019-04-23T02:25:35.317Z,9.93
2019-04-23T02:27:54.094Z,9.74
2019-04-23T02:30:40.082Z,9.84
2019-04-23T02:32:59.268Z,9.76
2019-04-23T02:35:38.638Z,9.83
2019-04-23T02:40:33.300Z,9.77
2019-04-23T02:43:01.666Z,9.66
2019-04-23T02:45:16.771Z,9.57
2019-04-23T02:50:32.933Z,9.58
2019-04-23T02:52:48.841Z,9.56
2019-04-23T03:02:45.110Z,9.69
2019-04-23T03:05:00.858Z,9.57
2019-04-23T03:07:41.121Z,9.57
2019-04-23T03:12:46.942Z,9.44
2019-04-23T03:15:21.863Z,9.60
2019-04-23T03:20:57.466Z,9.46
2019-04-23T03:23:32.009Z,9.58
2019-04-23T03:25:58.266Z,9.41
2019-04-23T03:28:38.170Z,9.60
2019-04-23T03:32:37.887Z,9.58
2019-04-23T03:38:43.137Z,9.39
2019-04-23T03:40:56.832Z,9.43
2019-04-23T03:43:26.179Z,9.38
2019-04-23T03:46:12.157Z,9.25
2019-04-23T03:48:28.020Z,9.49
2019-04-23T03:53:29.929Z,9.30
2019-04-23T03:58:18.711Z,9.31
2019-04-23T04:13:15.820Z,9.25
2019-04-23T04:15:55.640Z,9.27
2019-04-23T04:21:01.178Z,9.31
2019-04-23T04:25:49.889Z,9.31
2019-04-23T04:30:49.454Z,9.49
2019-04-23T04:35:47.537Z,9.34
2019-04-23T04:40:55.163Z,9.47
2019-04-23T04:48:18.095Z,9.61
2019-04-23T04:50:55.584Z,9.61
2019-04-23T04:55:45.104Z,9.60
2019-04-23T04:58:35.161Z,9.61
2019-04-23T05:06:06.444Z,9.57
2019-04-23T05:08:21.663Z,9.63
2019-04-23T05:10:51.649Z,9.69
2019-04-23T05:13:35.322Z,9.67
2019-04-23T05:15:44.287Z,9.64
2019-04-23T05:20:53.178Z,9.81
2019-04-23T05:25:44.636Z,10.29
2019-04-23T05:28:12.633Z,10.59
2019-04-23T05:30:44.621Z,10.68
2019-04-23T05:36:08.980Z,10.83
2019-04-23T05:38:22.759Z,10.98
2019-04-23T05:43:08.119Z,11.17
2019-04-23T05:45:39.957Z,11.44
2019-04-23T05:50:52.706Z,11.57
2019-04-23T05:53:14.876Z,11.68
2019-04-23T05:55:34.026Z,11.79
2019-04-23T05:58:04.562Z,11.75
2019-04-23T06:00:39.833Z,12.04
2019-04-23T06:03:09.855Z,12.07
2019-04-23T06:05:34.258Z,12.16
2019-04-23T06:08:03.335Z,12.37
2019-04-23T06:10:29.057Z,12.59
2019-04-23T06:12:59.670Z,12.75
2019-04-23T06:15:26.778Z,12.65
2019-04-23T06:17:54.139Z,12.53
2019-04-23T06:20:31.504Z,12.64
2019-04-23T06:23:01.176Z,12.70
2019-04-23T06:25:47.803Z,12.86
2019-04-23T06:27:57.546Z,13.26
2019-04-23T06:30:28.825Z,12.87
2019-04-23T06:32:52.305Z,13.41
2019-04-23T06:35:25.572Z,13.39
2019-04-23T06:38:14.397Z,13.72
2019-04-23T06:40:21.820Z,13.82
2019-04-23T06:42:57.941Z,13.96
2019-04-23T06:45:22.515Z,13.71
2019-04-23T06:47:54.183Z,14.11
2019-04-23T06:50:23.977Z,14.29
2019-04-23T06:52:50.713Z,14.16
2019-04-23T06:55:20.368Z,14.12
2019-04-23T06:57:48.074Z,14.41
2019-04-23T07:00:23.943Z,14.77
2019-04-23T07:02:44.251Z,15.13
2019-04-23T07:05:24.791Z,15.88
2019-04-23T07:10:20.051Z,15.53
2019-04-23T07:15:30.422Z,15.32
2019-04-23T07:17:42.766Z,15.72
2019-04-23T07:20:13.129Z,15.77
2019-04-23T07:22:45.625Z,16.59
2019-04-23T07:25:14.101Z,15.93
2019-04-23T07:27:39.378Z,16.90
2019-04-23T07:30:13.598Z,16.85
2019-04-23T07:32:43.359Z,15.90
2019-04-23T07:37:50.239Z,16.32
2019-04-23T07:40:35.984Z,15.64
2019-04-23T07:43:32.240Z,15.91
2019-04-23T07:46:33.240Z,16.18
2019-04-23T07:48:47.669Z,16.28
2019-04-23T07:51:19.481Z,17.14
2019-04-23T07:54:07.948Z,17.10
2019-04-23T07:56:23.335Z,16.91
2019-04-23T07:58:51.162Z,16.44
2019-04-23T08:01:25.174Z,16.13
2019-04-23T08:03:48.193Z,16.99
2019-04-23T08:06:12.073Z,16.80
2019-04-23T08:08:47.484Z,16.90
2019-04-23T08:13:47.348Z,17.02
2019-04-23T08:16:23.338Z,18.04
2019-04-23T08:18:45.289Z,16.86
2019-04-23T08:21:12.292Z,17.41
2019-04-23T08:24:17.102Z,17.62
2019-04-23T08:27:13.074Z,17.35
2019-04-23T08:29:43.881Z,17.70
2019-04-23T08:32:19.450Z,18.26
2019-04-23T08:34:57.541Z,18.12
2019-04-23T08:37:27.288Z,18.44
2019-04-23T08:45:07.522Z,19.77
2019-04-23T08:47:29.883Z,19.32
2019-04-23T08:50:18.805Z,19.20
2019-04-23T08:52:25.582Z,19.56
2019-04-23T08:57:27.339Z,20.02
2019-04-23T08:59:56.011Z,20.86
2019-04-23T09:02:37.443Z,20.13
2019-04-23T09:04:54.244Z,19.93
2019-04-23T09:07:21.974Z,19.75
2019-04-23T09:12:26.330Z,20.01
2019-04-23T09:14:51.140Z,21.26
2019-04-23T09:17:24.777Z,20.51
2019-04-23T09:27:16.292Z,21.36
2019-04-23T09:29:49.121Z,21.16
2019-04-23T09:32:36.708Z,20.86
2019-04-23T09:35:14.343Z,22.16
2019-04-23T09:41:04.615Z,23.07
2019-04-23T09:46:12.029Z,21.49
2019-04-23T09:48:35.430Z,21.22
2019-04-23T09:51:02.642Z,21.88
2019-04-23T09:55:51.576Z,22.52
2019-04-23T09:58:23.843Z,20.94
2019-04-23T10:01:20.792Z,23.47
2019-04-23T10:03:33.994Z,20.51
2019-04-23T10:05:57.237Z,21.30
2019-04-23T10:08:27.433Z,21.17
2019-04-23T10:10:49.110Z,23.26
2019-04-23T10:13:16.070Z,23.87
2019-04-23T10:15:46.734Z,21.85
2019-04-23T10:18:14.434Z,22.14
2019-04-23T10:20:42.716Z,23.19
2019-04-23T10:23:10.357Z,23.27
2019-04-23T10:25:38.409Z,23.24
2019-04-23T10:28:10.924Z,22.07
2019-04-23T10:30:38.517Z,21.29
2019-04-23T10:33:05.684Z,21.70
2019-04-23T10:35:41.410Z,23.69
2019-04-23T10:38:08.175Z,22.59
2019-04-23T10:40:36.462Z,24.59
2019-04-23T10:43:02.137Z,23.02
2019-04-23T10:45:58.019Z,21.91
2019-04-23T10:49:25.899Z,23.27
2019-04-23T10:54:25.095Z,23.34
2019-04-23T10:56:42.633Z,24.07
2019-04-23T10:59:10.640Z,23.50
2019-04-23T11:04:23.509Z,22.96
2019-04-23T11:09:27.550Z,24.83
2019-04-23T11:11:56.604Z,24.46
2019-04-23T11:14:18.345Z,25.49
2019-04-23T11:19:21.438Z,24.23
2019-04-23T11:21:40.361Z,24.22
2019-04-23T11:24:20.793Z,24.37
2019-04-23T11:26:44.250Z,25.98
2019-04-23T11:29:15.534Z,23.80
2019-04-23T11:31:43.356Z,22.60
2019-04-23T11:34:28.235Z,23.62
2019-04-23T11:39:08.451Z,22.89
2019-04-23T11:41:48.371Z,23.56
2019-04-23T11:44:13.377Z,24.57
2019-04-23T11:46:46.204Z,24.09
2019-04-23T11:49:34.539Z,23.02
2019-04-23T11:51:49.007Z,24.35
2019-04-23T11:54:03.415Z,23.23
2019-04-23T11:57:04.524Z,23.86
2019-04-23T11:59:13.469Z,23.70
2019-04-23T12:02:07.159Z,24.09
2019-04-23T12:05:02.312Z,23.36
2019-04-23T12:08:09.250Z,23.66
2019-04-23T12:10:30.011Z,23.53
2019-04-23T12:12:44.925Z,23.38
2019-04-23T12:15:26.766Z,23.44
2019-04-23T12:17:50.882Z,23.80
2019-04-23T12:20:23.039Z,23.14
2019-04-23T12:22:57.378Z,23.18
2019-04-23T12:25:42.362Z,23.86
2019-04-23T12:27:44.062Z,24.00
2019-04-23T12:30:27.570Z,23.31
2019-04-23T12:32:59.359Z,22.74
2019-04-23T12:35:19.193Z,22.42
2019-04-23T12:38:07.164Z,23.65
2019-04-23T12:40:52.678Z,23.02
2019-04-23T12:43:13.300Z,24.09
2019-04-23T12:45:37.536Z,23.42
2019-04-23T12:48:11.280Z,22.30
2019-04-23T12:53:23.608Z,23.30
2019-04-23T12:55:50.547Z,22.60
2019-04-23T12:58:37.790Z,21.42
2019-04-23T13:00:57.960Z,22.80
2019-04-23T13:03:32.929Z,21.86
2019-04-23T13:06:01.081Z,22.78
2019-04-23T13:09:16.261Z,21.40
2019-04-23T13:11:44.491Z,20.80
2019-04-23T13:14:20.416Z,20.54
2019-04-23T13:16:44.726Z,20.83
2019-04-23T13:19:16.149Z,20.75
2019-04-23T13:22:00.190Z,20.58
2019-04-23T13:24:17.181Z,20.50
2019-04-23T13:26:46.538Z,20.47
2019-04-23T13:29:42.906Z,20.43
2019-04-23T13:31:59.009Z,20.67
2019-04-23T13:34:37.496Z,20.49
2019-04-23T13:36:53.885Z,20.24
2019-04-23T13:39:28.984Z,20.51
2019-04-23T13:41:52.263Z,20.48
2019-04-23T13:44:15.757Z,19.92
2019-04-23T13:46:50.981Z,19.82
2019-04-23T13:49:18.020Z,20.08
2019-04-23T13:51:50.817Z,19.91
2019-04-23T13:54:27.880Z,20.18
2019-04-23T13:59:30.285Z,20.02
2019-04-23T14:04:45.237Z,19.62
2019-04-23T14:07:17.350Z,19.92
2019-04-23T14:09:45.542Z,19.64
2019-04-23T14:12:10.678Z,19.77
2019-04-23T14:14:52.141Z,19.67
2019-04-23T14:17:18.695Z,20.02
2019-04-23T14:19:35.731Z,20.04
2019-04-23T14:22:21.049Z,19.74
2019-04-23T14:24:48.316Z,19.77
2019-04-23T14:27:09.673Z,19.68
2019-04-23T14:29:41.461Z,19.98
2019-04-23T14:32:15.627Z,19.85
2019-04-23T14:34:58.532Z,20.01
2019-04-23T14:37:12.783Z,19.60
2019-04-23T14:39:40.140Z,20.11
2019-04-23T14:42:21.375Z,19.67
2019-04-23T14:45:00.578Z,19.89
2019-04-23T14:47:38.000Z,19.66
2019-04-23T14:50:22.863Z,19.42
2019-04-23T14:52:38.831Z,19.45
2019-04-23T15:00:03.298Z,19.52
2019-04-23T15:05:09.657Z,19.55
2019-04-23T15:07:27.945Z,19.71
2019-04-23T15:10:01.115Z,19.72
2019-04-23T15:15:02.871Z,19.56
2019-04-23T15:17:20.288Z,19.57
2019-04-23T15:19:55.193Z,19.54
2019-04-23T15:22:20.334Z,19.51
2019-04-23T15:25:06.906Z,19.56
2019-04-23T15:29:39.296Z,19.43
2019-04-23T15:32:26.984Z,19.28
2019-04-23T15:35:03.194Z,19.66
2019-04-23T15:37:34.621Z,19.44
2019-04-23T15:39:58.770Z,19.24
2019-04-23T15:44:48.489Z,19.48
2019-04-23T15:47:18.740Z,19.45
2019-04-23T15:49:45.126Z,19.50
2019-04-23T15:52:11.028Z,19.44
2019-04-23T15:54:50.916Z,19.50
2019-04-23T15:57:07.188Z,19.41
2019-04-23T15:59:42.003Z,19.30
2019-04-23T16:01:43.688Z,19.27
2019-04-23T16:04:14.585Z,19.33
2019-04-23T16:06:45.624Z,19.31
2019-04-23T16:09:38.780Z,19.48
2019-04-23T16:12:05.631Z,19.63
2019-04-23T16:14:47.953Z,19.62
2019-04-23T16:17:13.833Z,19.37
2019-04-23T16:19:57.808Z,19.34
2019-04-23T16:22:20.423Z,19.05
2019-04-23T16:24:55.836Z,19.03
2019-04-23T16:27:15.046Z,19.01
2019-04-23T16:30:00.130Z,18.92
2019-04-23T16:32:20.859Z,18.91
2019-04-23T16:34:44.763Z,18.85
2019-04-23T16:39:55.903Z,18.80
2019-04-23T16:44:59.608Z,18.83
2019-04-23T16:47:18.669Z,18.75
2019-04-23T16:49:51.156Z,18.79
2019-04-23T16:52:20.103Z,18.85
2019-04-23T16:54:50.599Z,18.56
2019-04-23T16:59:51.488Z,18.62
2019-04-23T17:02:14.824Z,18.53
2019-04-23T17:04:38.896Z,18.44
2019-04-23T17:14:33.015Z,18.42
2019-04-23T17:16:53.414Z,18.33
2019-04-23T17:19:41.011Z,18.19
2019-04-23T17:27:03.867Z,18.14
2019-04-23T17:29:28.253Z,18.12
2019-04-23T17:32:07.125Z,18.14
2019-04-23T17:34:40.463Z,18.00
2019-04-23T17:37:17.778Z,17.96
2019-04-23T17:42:40.139Z,17.90
2019-04-23T17:48:11.807Z,17.92
2019-04-23T17:51:02.930Z,17.85
2019-04-23T17:53:11.098Z,17.75
2019-04-23T17:55:59.114Z,17.66
2019-04-23T17:58:22.419Z,17.66
2019-04-23T18:03:04.520Z,17.58
2019-04-23T18:05:40.818Z,17.60
2019-04-23T18:08:09.949Z,17.53
2019-04-23T18:10:51.618Z,17.56
2019-04-23T18:13:17.242Z,17.48
2019-04-23T18:15:41.330Z,17.44
2019-04-23T18:18:10.092Z,17.40
2019-04-23T18:20:37.648Z,17.42
2019-04-23T18:25:46.003Z,17.26
2019-04-23T18:28:22.597Z,17.13
2019-04-23T18:31:05.875Z,17.12
2019-04-23T18:36:03.267Z,17.01
2019-04-23T18:38:41.575Z,16.91
2019-04-23T18:41:05.291Z,16.82
2019-04-23T18:46:30.577Z,16.60
2019-04-23T18:53:48.463Z,16.66
2019-04-23T18:58:48.602Z,16.76
2019-04-23T19:01:12.153Z,16.78
2019-04-23T19:09:24.706Z,16.69
2019-04-23T19:12:28.261Z,16.67
2019-04-23T19:14:56.075Z,16.55
2019-04-23T19:19:48.046Z,16.48
2019-04-23T19:27:35.240Z,16.43
2019-04-23T19:32:08.873Z,16.35
2019-04-23T19:39:43.484Z,16.08
2019-04-23T19:42:10.309Z,16.01
2019-04-23T19:47:10.759Z,15.94
2019-04-23T19:49:37.014Z,15.87
2019-04-23T19:52:46.111Z,15.81
2019-04-23T19:54:43.770Z,15.83
2019-04-23T19:57:15.198Z,15.73
2019-04-23T19:59:44.441Z,15.63
2019-04-23T20:02:07.327Z,15.58
2019-04-23T20:04:39.181Z,15.42
2019-04-23T20:07:12.263Z,15.23
2019-04-23T20:12:00.735Z,15.13
2019-04-23T20:14:37.780Z,15.09
2019-04-23T20:17:21.330Z,14.86
2019-04-23T20:30:23.454Z,14.66
2019-04-23T20:32:16.911Z,14.66
2019-04-23T20:35:07.244Z,14.38
2019-04-23T20:37:59.510Z,14.28
2019-04-23T20:40:04.203Z,14.17
2019-04-23T20:44:58.968Z,14.33
2019-04-23T20:50:03.731Z,14.05
2019-04-23T20:52:13.764Z,14.03
2019-04-23T21:00:12.297Z,13.90
2019-04-23T21:05:26.467Z,13.89
2019-04-23T21:08:29.245Z,13.67
2019-04-23T21:10:37.367Z,13.68
2019-04-23T21:18:13.969Z,13.67
2019-04-23T21:20:36.648Z,13.64
2019-04-23T21:39:04.046Z,13.46
2019-04-23T21:44:11.937Z,13.33
2019-04-23T21:46:45.308Z,13.22
2019-04-23T21:53:58.885Z,13.06
2019-04-23T21:56:37.165Z,12.94
2019-04-23T21:59:10.483Z,12.89
2019-04-23T22:04:25.681Z,12.92
2019-04-23T22:09:10.995Z,12.95
2019-04-23T22:14:13.071Z,12.83
2019-04-23T22:16:40.943Z,12.71
2019-04-23T22:19:10.582Z,12.76
2019-04-23T22:21:41.155Z,12.73
2019-04-23T22:26:35.204Z,12.66
2019-04-23T22:34:02.293Z,12.59
2019-04-23T22:36:23.537Z,12.65
2019-04-23T22:38:59.457Z,12.52
2019-04-23T22:41:32.032Z,12.57
2019-04-23T22:44:02.413Z,12.52
2019-04-23T22:46:24.374Z,12.65
2019-04-23T22:49:07.152Z,12.53
2019-04-23T22:51:31.311Z,12.39
2019-04-23T22:53:58.605Z,12.42
2019-04-23T22:56:25.849Z,12.39
2019-04-23T22:59:03.479Z,12.49
2019-04-23T23:01:26.642Z,12.30
2019-04-23T23:04:00.122Z,12.36
2019-04-23T23:06:36.850Z,12.42
2019-04-23T23:09:10.173Z,12.39
2019-04-23T23:11:16.855Z,12.32
2019-04-23T23:14:10.208Z,12.30
2019-04-23T23:16:14.482Z,12.26
2019-04-23T23:18:52.415Z,12.16
2019-04-23T23:23:48.126Z,12.04
2019-04-23T23:26:21.968Z,11.91
2019-04-23T23:31:13.249Z,11.86
2019-04-23T23:33:47.177Z,11.91
2019-04-23T23:36:12.426Z,11.87
2019-04-23T23:38:51.074Z,11.73
2019-04-23T23:41:26.556Z,11.92
2019-04-23T23:43:41.291Z,11.82
2019-04-23T23:48:35.732Z,11.68
2019-04-23T23:53:51.652Z,11.70
2019-04-23T23:56:15.856Z,11.78
2019-04-23T23:58:43.692Z,11.77
